BIVO/VPN METAR and TAF weather

Enter ICAO airport designator
Station Type Date Time Source
BIVO METAR 2019/03/25 08:31 UTC NOAA

BIVO 250831Z 00000KT 9000 VCSH BKN020 OVC035 M02/M05 Q1021


Station Type Date Time Source
BIVO Decoded METAR 2019/03/25 08:31 UTC NOAA

Skjaldthingsstadir, Iceland (BIVO) 65-42N 014-49W 48M
Mar 25, 2019 - 04:31 AM EDT / 2019.03.25 0831 UTC
Wind: Calm:0
Visibility: 5 mile(s):0
Sky conditions: overcast
Weather: showers in the vicinity
Temperature: 28 F (-2 C)
Dew Point: 23 F (-5 C)
Relative Humidity: 79%
Pressure (altimeter): 30.15 in. Hg (1021 hPa)
ob: BIVO 250831Z 00000KT 9000 VCSH BKN020 OVC035 M02/M05 Q1021
cycle: 8

Station Type Date Time Source
BIVO TAF UTC NOAA

Error!

Example: see airport list